sensor_id;sensor_type;location;lat;lon;timestamp;P1;durP1;ratioP1;P2;durP2;ratioP2
21293;SDS011;10806;52.250;21.066;2022-07-21T00:01:46;7.53;;;5.53;;
21293;SDS011;10806;52.250;21.066;2022-07-21T00:04:13;5.53;;;5.03;;
21293;SDS011;10806;52.250;21.066;2022-07-21T00:06:40;6.15;;;5.25;;
21293;SDS011;10806;52.250;21.066;2022-07-21T00:09:06;5.53;;;5.03;;
21293;SDS011;10806;52.250;21.066;2022-07-21T00:11:32;5.53;;;5.03;;
21293;SDS011;10806;52.250;21.066;2022-07-21T00:13:57;6.50;;;5.00;;
21293;SDS011;10806;52.250;21.066;2022-07-21T00:16:23;6.45;;;5.60;;
21293;SDS011;10806;52.250;21.066;2022-07-21T00:18:49;6.15;;;5.55;;
21293;SDS011;10806;52.250;21.066;2022-07-21T00:21:14;6.82;;;5.53;;
21293;SDS011;10806;52.250;21.066;2022-07-21T00:23:40;5.80;;;5.13;;
21293;SDS011;10806;52.250;21.066;2022-07-21T00:26:05;6.30;;;4.85;;
21293;SDS011;10806;52.250;21.066;2022-07-21T00:28:31;7.90;;;5.75;;
21293;SDS011;10806;52.250;21.066;2022-07-21T00:30:57;6.65;;;5.03;;
21293;SDS011;10806;52.250;21.066;2022-07-21T00:33:22;5.93;;;5.32;;
21293;SDS011;10806;52.250;21.066;2022-07-21T00:35:48;5.38;;;4.85;;
21293;SDS011;10806;52.250;21.066;2022-07-21T00:38:13;5.63;;;5.13;;
21293;SDS011;10806;52.250;21.066;2022-07-21T00:40:39;6.68;;;5.15;;
21293;SDS011;10806;52.250;21.066;2022-07-21T00:43:05;5.03;;;4.63;;
21293;SDS011;10806;52.250;21.066;2022-07-21T00:45:30;5.53;;;5.03;;
21293;SDS011;10806;52.250;21.066;2022-07-21T00:47:56;6.25;;;5.57;;
21293;SDS011;10806;52.250;21.066;2022-07-21T00:50:22;5.25;;;4.75;;
21293;SDS011;10806;52.250;21.066;2022-07-21T00:52:48;6.40;;;5.13;;
21293;SDS011;10806;52.250;21.066;2022-07-21T00:55:15;6.35;;;5.45;;
21293;SDS011;10806;52.250;21.066;2022-07-21T00:57:42;5.28;;;4.88;;
21293;SDS011;10806;52.250;21.066;2022-07-21T01:00:10;5.93;;;5.38;;
21293;SDS011;10806;52.250;21.066;2022-07-21T01:02:38;5.60;;;5.10;;
21293;SDS011;10806;52.250;21.066;2022-07-21T01:05:05;7.13;;;5.10;;
21293;SDS011;10806;52.250;21.066;2022-07-21T01:07:32;5.53;;;5.03;;
21293;SDS011;10806;52.250;21.066;2022-07-21T01:09:58;5.60;;;5.10;;
21293;SDS011;10806;52.250;21.066;2022-07-21T01:12:24;5.80;;;5.18;;
21293;SDS011;10806;52.250;21.066;2022-07-21T01:14:50;5.45;;;4.95;;
21293;SDS011;10806;52.250;21.066;2022-07-21T01:17:16;5.90;;;5.28;;
21293;SDS011;10806;52.250;21.066;2022-07-21T01:19:42;7.80;;;5.43;;
21293;SDS011;10806;52.250;21.066;2022-07-21T01:22:07;5.93;;;5.30;;
21293;SDS011;10806;52.250;21.066;2022-07-21T01:24:33;5.80;;;5.22;;
21293;SDS011;10806;52.250;21.066;2022-07-21T01:26:59;6.05;;;5.20;;
21293;SDS011;10806;52.250;21.066;2022-07-21T01:29:24;5.72;;;5.13;;
21293;SDS011;10806;52.250;21.066;2022-07-21T01:31:50;5.45;;;4.95;;
21293;SDS011;10806;52.250;21.066;2022-07-21T01:34:16;5.97;;;5.40;;
21293;SDS011;10806;52.250;21.066;2022-07-21T01:36:43;5.97;;;5.15;;
21293;SDS011;10806;52.250;21.066;2022-07-21T01:39:09;6.75;;;5.22;;
21293;SDS011;10806;52.250;21.066;2022-07-21T01:41:53;8.73;;;5.43;;
21293;SDS011;10806;52.250;21.066;2022-07-21T01:44:19;6.00;;;5.38;;
21293;SDS011;10806;52.250;21.066;2022-07-21T01:46:45;5.93;;;5.00;;
21293;SDS011;10806;52.250;21.066;2022-07-21T01:49:16;5.97;;;5.47;;
21293;SDS011;10806;52.250;21.066;2022-07-21T01:51:43;5.47;;;4.97;;
21293;SDS011;10806;52.250;21.066;2022-07-21T01:54:09;6.28;;;5.55;;
21293;SDS011;10806;52.250;21.066;2022-07-21T01:56:36;5.45;;;4.85;;
21293;SDS011;10806;52.250;21.066;2022-07-21T01:59:03;5.90;;;5.32;;
21293;SDS011;10806;52.250;21.066;2022-07-21T02:01:29;5.88;;;5.28;;
21293;SDS011;10806;52.250;21.066;2022-07-21T02:03:57;5.10;;;4.63;;
21293;SDS011;10806;52.250;21.066;2022-07-21T02:06:25;6.43;;;4.90;;
21293;SDS011;10806;52.250;21.066;2022-07-21T02:08:51;7.68;;;5.57;;
21293;SDS011;10806;52.250;21.066;2022-07-21T02:11:17;6.03;;;5.30;;
21293;SDS011;10806;52.250;21.066;2022-07-21T02:13:43;5.47;;;4.97;;
21293;SDS011;10806;52.250;21.066;2022-07-21T02:16:09;5.15;;;4.65;;
21293;SDS011;10806;52.250;21.066;2022-07-21T02:18:35;5.53;;;5.00;;
21293;SDS011;10806;52.250;21.066;2022-07-21T02:21:01;5.47;;;5.00;;
21293;SDS011;10806;52.250;21.066;2022-07-21T02:23:27;6.03;;;4.95;;
21293;SDS011;10806;52.250;21.066;2022-07-21T02:25:53;5.10;;;4.60;;
21293;SDS011;10806;52.250;21.066;2022-07-21T02:28:19;5.32;;;4.85;;
21293;SDS011;10806;52.250;21.066;2022-07-21T02:30:45;6.07;;;5.47;;
21293;SDS011;10806;52.250;21.066;2022-07-21T02:33:12;5.25;;;4.75;;
21293;SDS011;10806;52.250;21.066;2022-07-21T02:35:38;5.53;;;5.03;;
21293;SDS011;10806;52.250;21.066;2022-07-21T02:38:05;6.00;;;5.15;;
21293;SDS011;10806;52.250;21.066;2022-07-21T02:40:31;5.22;;;4.72;;
21293;SDS011;10806;52.250;21.066;2022-07-21T02:42:56;5.40;;;4.72;;
21293;SDS011;10806;52.250;21.066;2022-07-21T02:45:22;11.30;;;5.30;;
21293;SDS011;10806;52.250;21.066;2022-07-21T02:47:55;7.65;;;5.15;;
21293;SDS011;10806;52.250;21.066;2022-07-21T02:50:23;6.47;;;5.60;;
21293;SDS011;10806;52.250;21.066;2022-07-21T02:52:57;6.68;;;5.15;;
21293;SDS011;10806;52.250;21.066;2022-07-21T02:55:25;6.32;;;4.90;;
21293;SDS011;10806;52.250;21.066;2022-07-21T02:58:07;5.60;;;5.10;;
21293;SDS011;10806;52.250;21.066;2022-07-21T03:00:35;7.10;;;5.22;;
21293;SDS011;10806;52.250;21.066;2022-07-21T03:03:02;5.38;;;4.88;;
21293;SDS011;10806;52.250;21.066;2022-07-21T03:05:28;6.57;;;5.10;;
21293;SDS011;10806;52.250;21.066;2022-07-21T03:07:54;5.72;;;5.10;;
21293;SDS011;10806;52.250;21.066;2022-07-21T03:10:20;5.88;;;5.28;;
21293;SDS011;10806;52.250;21.066;2022-07-21T03:12:46;5.88;;;5.28;;
21293;SDS011;10806;52.250;21.066;2022-07-21T03:15:11;5.60;;;4.80;;
21293;SDS011;10806;52.250;21.066;2022-07-21T03:17:37;5.72;;;4.78;;
21293;SDS011;10806;52.250;21.066;2022-07-21T03:20:03;5.70;;;5.20;;
21293;SDS011;10806;52.250;21.066;2022-07-21T03:22:29;5.47;;;4.97;;
21293;SDS011;10806;52.250;21.066;2022-07-21T03:24:55;5.85;;;5.28;;
21293;SDS011;10806;52.250;21.066;2022-07-21T03:27:20;5.78;;;4.93;;
21293;SDS011;10806;52.250;21.066;2022-07-21T03:29:46;7.20;;;5.30;;
21293;SDS011;10806;52.250;21.066;2022-07-21T03:32:11;6.43;;;4.90;;
21293;SDS011;10806;52.250;21.066;2022-07-21T03:34:37;6.07;;;5.18;;
21293;SDS011;10806;52.250;21.066;2022-07-21T03:37:02;5.60;;;4.80;;
21293;SDS011;10806;52.250;21.066;2022-07-21T03:39:28;6.00;;;5.40;;
21293;SDS011;10806;52.250;21.066;2022-07-21T03:41:54;5.65;;;5.05;;
21293;SDS011;10806;52.250;21.066;2022-07-21T03:44:19;5.57;;;5.05;;
21293;SDS011;10806;52.250;21.066;2022-07-21T03:46:45;5.40;;;4.88;;
21293;SDS011;10806;52.250;21.066;2022-07-21T03:49:10;6.40;;;5.30;;
21293;SDS011;10806;52.250;21.066;2022-07-21T03:51:36;5.95;;;5.35;;
21293;SDS011;10806;52.250;21.066;2022-07-21T03:54:01;6.25;;;5.53;;
21293;SDS011;10806;52.250;21.066;2022-07-21T03:56:27;10.63;;;5.65;;
21293;SDS011;10806;52.250;21.066;2022-07-21T03:58:53;6.03;;;5.43;;
21293;SDS011;10806;52.250;21.066;2022-07-21T04:01:19;5.72;;;5.13;;
21293;SDS011;10806;52.250;21.066;2022-07-21T04:03:45;5.85;;;5.25;;
21293;SDS011;10806;52.250;21.066;2022-07-21T04:06:10;6.38;;;5.30;;
21293;SDS011;10806;52.250;21.066;2022-07-21T04:08:37;6.18;;;5.57;;
21293;SDS011;10806;52.250;21.066;2022-07-21T04:11:03;6.07;;;5.57;;
21293;SDS011;10806;52.250;21.066;2022-07-21T04:13:29;6.75;;;5.70;;
21293;SDS011;10806;52.250;21.066;2022-07-21T04:15:54;5.70;;;4.88;;
21293;SDS011;10806;52.250;21.066;2022-07-21T04:18:20;5.85;;;5.35;;
21293;SDS011;10806;52.250;21.066;2022-07-21T04:20:45;6.05;;;4.95;;
21293;SDS011;10806;52.250;21.066;2022-07-21T04:23:11;6.55;;;5.60;;
21293;SDS011;10806;52.250;21.066;2022-07-21T04:25:37;6.13;;;5.13;;
21293;SDS011;10806;52.250;21.066;2022-07-21T04:28:04;6.10;;;5.28;;
21293;SDS011;10806;52.250;21.066;2022-07-21T04:30:30;7.97;;;5.10;;
21293;SDS011;10806;52.250;21.066;2022-07-21T04:32:56;7.20;;;5.70;;
21293;SDS011;10806;52.250;21.066;2022-07-21T04:35:21;6.20;;;4.85;;
21293;SDS011;10806;52.250;21.066;2022-07-21T04:37:47;5.65;;;5.03;;
21293;SDS011;10806;52.250;21.066;2022-07-21T04:40:13;5.97;;;5.38;;
21293;SDS011;10806;52.250;21.066;2022-07-21T04:42:39;5.28;;;4.78;;
21293;SDS011;10806;52.250;21.066;2022-07-21T04:45:06;6.15;;;5.55;;
21293;SDS011;10806;52.250;21.066;2022-07-21T04:47:32;5.88;;;5.07;;
21293;SDS011;10806;52.250;21.066;2022-07-21T04:50:08;5.55;;;5.05;;
21293;SDS011;10806;52.250;21.066;2022-07-21T04:52:34;7.05;;;5.45;;
21293;SDS011;10806;52.250;21.066;2022-07-21T04:55:00;5.80;;;5.20;;
21293;SDS011;10806;52.250;21.066;2022-07-21T04:57:25;6.57;;;5.60;;
21293;SDS011;10806;52.250;21.066;2022-07-21T04:59:51;6.22;;;5.57;;
21293;SDS011;10806;52.250;21.066;2022-07-21T05:02:16;5.88;;;5.28;;
21293;SDS011;10806;52.250;21.066;2022-07-21T05:04:42;5.75;;;5.22;;
21293;SDS011;10806;52.250;21.066;2022-07-21T05:07:07;7.93;;;5.35;;
21293;SDS011;10806;52.250;21.066;2022-07-21T05:09:33;6.70;;;5.72;;
21293;SDS011;10806;52.250;21.066;2022-07-21T05:11:59;6.80;;;5.82;;
21293;SDS011;10806;52.250;21.066;2022-07-21T05:14:24;8.73;;;5.47;;
21293;SDS011;10806;52.250;21.066;2022-07-21T05:16:50;8.13;;;5.60;;
21293;SDS011;10806;52.250;21.066;2022-07-21T05:19:15;5.60;;;5.10;;
21293;SDS011;10806;52.250;21.066;2022-07-21T05:21:41;5.50;;;5.00;;
21293;SDS011;10806;52.250;21.066;2022-07-21T05:24:07;6.03;;;5.47;;
21293;SDS011;10806;52.250;21.066;2022-07-21T05:26:34;5.95;;;5.35;;
21293;SDS011;10806;52.250;21.066;2022-07-21T05:28:59;6.18;;;5.57;;
21293;SDS011;10806;52.250;21.066;2022-07-21T05:31:25;5.68;;;5.10;;
21293;SDS011;10806;52.250;21.066;2022-07-21T05:33:50;5.70;;;5.10;;
21293;SDS011;10806;52.250;21.066;2022-07-21T05:36:16;6.03;;;5.43;;
21293;SDS011;10806;52.250;21.066;2022-07-21T05:38:43;6.55;;;5.68;;
21293;SDS011;10806;52.250;21.066;2022-07-21T05:41:09;6.20;;;5.60;;
21293;SDS011;10806;52.250;21.066;2022-07-21T05:43:34;5.50;;;5.07;;
21293;SDS011;10806;52.250;21.066;2022-07-21T05:46:00;5.97;;;5.47;;
21293;SDS011;10806;52.250;21.066;2022-07-21T05:48:25;6.50;;;5.25;;
21293;SDS011;10806;52.250;21.066;2022-07-21T05:50:51;6.72;;;5.53;;
21293;SDS011;10806;52.250;21.066;2022-07-21T05:53:17;5.85;;;5.22;;
21293;SDS011;10806;52.250;21.066;2022-07-21T05:55:42;5.32;;;4.70;;
21293;SDS011;10806;52.250;21.066;2022-07-21T05:58:08;7.22;;;5.50;;
21293;SDS011;10806;52.250;21.066;2022-07-21T06:00:34;5.80;;;5.30;;
21293;SDS011;10806;52.250;21.066;2022-07-21T06:02:59;7.45;;;5.38;;
21293;SDS011;10806;52.250;21.066;2022-07-21T06:05:25;5.65;;;5.10;;
21293;SDS011;10806;52.250;21.066;2022-07-21T06:07:50;5.90;;;5.40;;
21293;SDS011;10806;52.250;21.066;2022-07-21T06:10:16;7.88;;;5.50;;
21293;SDS011;10806;52.250;21.066;2022-07-21T06:12:42;5.85;;;5.22;;
21293;SDS011;10806;52.250;21.066;2022-07-21T06:15:09;5.85;;;5.35;;
21293;SDS011;10806;52.250;21.066;2022-07-21T06:17:39;6.30;;;5.70;;
21293;SDS011;10806;52.250;21.066;2022-07-21T06:20:08;5.95;;;5.05;;
21293;SDS011;10806;52.250;21.066;2022-07-21T06:22:36;6.55;;;5.20;;
21293;SDS011;10806;52.250;21.066;2022-07-21T06:25:02;6.72;;;5.03;;
21293;SDS011;10806;52.250;21.066;2022-07-21T06:27:28;6.82;;;5.10;;
21293;SDS011;10806;52.250;21.066;2022-07-21T06:29:54;6.97;;;5.13;;
21293;SDS011;10806;52.250;21.066;2022-07-21T06:32:21;6.97;;;5.10;;
21293;SDS011;10806;52.250;21.066;2022-07-21T06:34:47;6.55;;;4.95;;
21293;SDS011;10806;52.250;21.066;2022-07-21T06:37:13;5.82;;;5.28;;
21293;SDS011;10806;52.250;21.066;2022-07-21T06:39:38;6.07;;;5.57;;
21293;SDS011;10806;52.250;21.066;2022-07-21T06:42:06;6.07;;;5.45;;
21293;SDS011;10806;52.250;21.066;2022-07-21T06:44:32;5.07;;;4.68;;
21293;SDS011;10806;52.250;21.066;2022-07-21T06:46:58;5.57;;;5.07;;
21293;SDS011;10806;52.250;21.066;2022-07-21T06:49:29;10.15;;;4.95;;
21293;SDS011;10806;52.250;21.066;2022-07-21T06:51:58;5.85;;;4.80;;
21293;SDS011;10806;52.250;21.066;2022-07-21T06:54:23;4.82;;;4.43;;
21293;SDS011;10806;52.250;21.066;2022-07-21T06:56:49;5.32;;;4.82;;
21293;SDS011;10806;52.250;21.066;2022-07-21T06:59:14;5.97;;;4.60;;
21293;SDS011;10806;52.250;21.066;2022-07-21T07:01:40;8.20;;;4.78;;
21293;SDS011;10806;52.250;21.066;2022-07-21T07:04:06;5.30;;;4.80;;
21293;SDS011;10806;52.250;21.066;2022-07-21T07:06:31;5.75;;;4.97;;
21293;SDS011;10806;52.250;21.066;2022-07-21T07:08:57;5.03;;;4.22;;
21293;SDS011;10806;52.250;21.066;2022-07-21T07:11:22;4.55;;;4.15;;
21293;SDS011;10806;52.250;21.066;2022-07-21T07:13:48;4.65;;;4.25;;
21293;SDS011;10806;52.250;21.066;2022-07-21T07:16:13;4.60;;;4.20;;
21293;SDS011;10806;52.250;21.066;2022-07-21T07:18:39;5.03;;;4.60;;
21293;SDS011;10806;52.250;21.066;2022-07-21T07:21:05;5.18;;;4.20;;
21293;SDS011;10806;52.250;21.066;2022-07-21T07:23:30;5.95;;;4.60;;
21293;SDS011;10806;52.250;21.066;2022-07-21T07:25:56;5.60;;;4.35;;
21293;SDS011;10806;52.250;21.066;2022-07-21T07:28:22;8.13;;;4.75;;
21293;SDS011;10806;52.250;21.066;2022-07-21T07:30:47;4.65;;;4.25;;
21293;SDS011;10806;52.250;21.066;2022-07-21T07:33:14;5.47;;;4.65;;
21293;SDS011;10806;52.250;21.066;2022-07-21T07:35:39;5.35;;;4.53;;
21293;SDS011;10806;52.250;21.066;2022-07-21T07:38:05;5.95;;;4.03;;
21293;SDS011;10806;52.250;21.066;2022-07-21T07:40:31;4.80;;;4.30;;
21293;SDS011;10806;52.250;21.066;2022-07-21T07:42:56;7.95;;;4.68;;
21293;SDS011;10806;52.250;21.066;2022-07-21T07:45:22;5.13;;;4.63;;
21293;SDS011;10806;52.250;21.066;2022-07-21T07:47:48;4.60;;;4.15;;
21293;SDS011;10806;52.250;21.066;2022-07-21T07:50:14;7.90;;;4.68;;
21293;SDS011;10806;52.250;21.066;2022-07-21T07:52:40;7.32;;;4.00;;
21293;SDS011;10806;52.250;21.066;2022-07-21T07:55:08;5.65;;;4.35;;
21293;SDS011;10806;52.250;21.066;2022-07-21T07:57:35;4.50;;;4.10;;
21293;SDS011;10806;52.250;21.066;2022-07-21T08:00:06;4.57;;;4.18;;
21293;SDS011;10806;52.250;21.066;2022-07-21T08:02:34;5.82;;;4.50;;
21293;SDS011;10806;52.250;21.066;2022-07-21T08:05:00;4.50;;;4.10;;
21293;SDS011;10806;52.250;21.066;2022-07-21T08:07:25;4.43;;;4.03;;
21293;SDS011;10806;52.250;21.066;2022-07-21T08:09:51;4.65;;;4.25;;
21293;SDS011;10806;52.250;21.066;2022-07-21T08:12:17;6.55;;;4.20;;
21293;SDS011;10806;52.250;21.066;2022-07-21T08:14:42;4.93;;;4.15;;
21293;SDS011;10806;52.250;21.066;2022-07-21T08:17:08;4.70;;;4.07;;
21293;SDS011;10806;52.250;21.066;2022-07-21T08:19:34;5.15;;;3.92;;
21293;SDS011;10806;52.250;21.066;2022-07-21T08:22:00;7.28;;;4.25;;
21293;SDS011;10806;52.250;21.066;2022-07-21T08:24:26;4.20;;;3.85;;
21293;SDS011;10806;52.250;21.066;2022-07-21T08:26:52;4.40;;;4.00;;
21293;SDS011;10806;52.250;21.066;2022-07-21T08:29:17;4.72;;;3.72;;
21293;SDS011;10806;52.250;21.066;2022-07-21T08:31:43;4.43;;;4.03;;
21293;SDS011;10806;52.250;21.066;2022-07-21T08:34:08;4.47;;;4.07;;
21293;SDS011;10806;52.250;21.066;2022-07-21T08:36:34;4.38;;;3.97;;
21293;SDS011;10806;52.250;21.066;2022-07-21T08:39:00;4.55;;;3.90;;
21293;SDS011;10806;52.250;21.066;2022-07-21T08:41:25;6.25;;;4.10;;
21293;SDS011;10806;52.250;21.066;2022-07-21T08:43:51;4.95;;;4.47;;
21293;SDS011;10806;52.250;21.066;2022-07-21T08:46:18;6.82;;;3.90;;
21293;SDS011;10806;52.250;21.066;2022-07-21T08:48:46;5.75;;;3.85;;
21293;SDS011;10806;52.250;21.066;2022-07-21T08:51:13;4.60;;;4.20;;
21293;SDS011;10806;52.250;21.066;2022-07-21T08:53:43;4.70;;;4.22;;
21293;SDS011;10806;52.250;21.066;2022-07-21T08:56:10;4.68;;;4.05;;
21293;SDS011;10806;52.250;21.066;2022-07-21T08:58:35;4.07;;;3.67;;
21293;SDS011;10806;52.250;21.066;2022-07-21T09:01:02;4.00;;;3.65;;
21293;SDS011;10806;52.250;21.066;2022-07-21T09:03:28;4.97;;;3.97;;
21293;SDS011;10806;52.250;21.066;2022-07-21T09:06:07;4.55;;;4.07;;
21293;SDS011;10806;52.250;21.066;2022-07-21T09:08:49;4.72;;;3.78;;
21293;SDS011;10806;52.250;21.066;2022-07-21T09:11:25;4.85;;;3.58;;
21293;SDS011;10806;52.250;21.066;2022-07-21T09:14:34;4.45;;;3.65;;
21293;SDS011;10806;52.250;21.066;2022-07-21T09:16:47;6.00;;;4.00;;
21293;SDS011;10806;52.250;21.066;2022-07-21T09:19:24;7.93;;;3.97;;
21293;SDS011;10806;52.250;21.066;2022-07-21T09:21:57;5.82;;;3.83;;
21293;SDS011;10806;52.250;21.066;2022-07-21T09:24:25;4.30;;;3.90;;
21293;SDS011;10806;52.250;21.066;2022-07-21T09:27:10;4.65;;;4.07;;
21293;SDS011;10806;52.250;21.066;2022-07-21T09:32:12;4.30;;;3.67;;
21293;SDS011;10806;52.250;21.066;2022-07-21T09:34:49;4.43;;;3.92;;
21293;SDS011;10806;52.250;21.066;2022-07-21T09:37:16;4.72;;;3.80;;
21293;SDS011;10806;52.250;21.066;2022-07-21T09:39:56;4.75;;;4.00;;
21293;SDS011;10806;52.250;21.066;2022-07-21T09:44:53;5.65;;;3.70;;
21293;SDS011;10806;52.250;21.066;2022-07-21T09:47:25;3.97;;;3.67;;
21293;SDS011;10806;52.250;21.066;2022-07-21T09:49:52;4.55;;;3.85;;
21293;SDS011;10806;52.250;21.066;2022-07-21T09:52:26;4.03;;;3.63;;
21293;SDS011;10806;52.250;21.066;2022-07-21T09:55:07;4.75;;;3.97;;
21293;SDS011;10806;52.250;21.066;2022-07-21T09:57:34;4.05;;;3.53;;
21293;SDS011;10806;52.250;21.066;2022-07-21T10:00:01;4.10;;;3.58;;
21293;SDS011;10806;52.250;21.066;2022-07-21T10:02:35;4.35;;;3.70;;
21293;SDS011;10806;52.250;21.066;2022-07-21T10:05:04;4.10;;;3.70;;
21293;SDS011;10806;52.250;21.066;2022-07-21T10:07:31;5.07;;;3.50;;
21293;SDS011;10806;52.250;21.066;2022-07-21T10:09:58;3.70;;;3.35;;
21293;SDS011;10806;52.250;21.066;2022-07-21T10:12:25;5.50;;;3.70;;
21293;SDS011;10806;52.250;21.066;2022-07-21T10:14:51;4.05;;;3.65;;
21293;SDS011;10806;52.250;21.066;2022-07-21T10:17:18;4.55;;;3.75;;
21293;SDS011;10806;52.250;21.066;2022-07-21T10:19:52;5.72;;;3.88;;
21293;SDS011;10806;52.250;21.066;2022-07-21T10:22:34;3.80;;;3.45;;
21293;SDS011;10806;52.250;21.066;2022-07-21T10:25:14;3.67;;;3.38;;
21293;SDS011;10806;52.250;21.066;2022-07-21T10:28:11;6.07;;;3.80;;
21293;SDS011;10806;52.250;21.066;2022-07-21T10:30:53;5.88;;;3.70;;
21293;SDS011;10806;52.250;21.066;2022-07-21T10:33:21;3.65;;;3.35;;
21293;SDS011;10806;52.250;21.066;2022-07-21T10:36:07;4.00;;;3.60;;
21293;SDS011;10806;52.250;21.066;2022-07-21T10:38:33;4.65;;;3.90;;
21293;SDS011;10806;52.250;21.066;2022-07-21T10:41:01;5.07;;;3.55;;
21293;SDS011;10806;52.250;21.066;2022-07-21T10:45:54;4.15;;;3.50;;
21293;SDS011;10806;52.250;21.066;2022-07-21T10:51:10;4.55;;;3.67;;
21293;SDS011;10806;52.250;21.066;2022-07-21T10:53:37;3.58;;;3.28;;
21293;SDS011;10806;52.250;21.066;2022-07-21T10:56:04;5.22;;;3.65;;
21293;SDS011;10806;52.250;21.066;2022-07-21T10:58:36;4.28;;;3.47;;
21293;SDS011;10806;52.250;21.066;2022-07-21T11:01:19;4.05;;;3.70;;
21293;SDS011;10806;52.250;21.066;2022-07-21T11:06:42;4.22;;;3.22;;
21293;SDS011;10806;52.250;21.066;2022-07-21T11:11:37;4.80;;;3.40;;
21293;SDS011;10806;52.250;21.066;2022-07-21T11:14:08;4.20;;;3.40;;
21293;SDS011;10806;52.250;21.066;2022-07-21T11:19:36;4.90;;;3.30;;
21293;SDS011;10806;52.250;21.066;2022-07-21T11:22:23;5.43;;;3.70;;
21293;SDS011;10806;52.250;21.066;2022-07-21T11:27:24;3.88;;;3.42;;
21293;SDS011;10806;52.250;21.066;2022-07-21T11:29:53;4.00;;;3.33;;
21293;SDS011;10806;52.250;21.066;2022-07-21T11:32:21;3.58;;;3.28;;
21293;SDS011;10806;52.250;21.066;2022-07-21T11:34:57;6.28;;;3.30;;
21293;SDS011;10806;52.250;21.066;2022-07-21T11:37:27;3.53;;;3.13;;
21293;SDS011;10806;52.250;21.066;2022-07-21T11:39:55;5.15;;;3.65;;
21293;SDS011;10806;52.250;21.066;2022-07-21T11:42:21;5.68;;;3.05;;
21293;SDS011;10806;52.250;21.066;2022-07-21T11:44:47;4.88;;;3.45;;
21293;SDS011;10806;52.250;21.066;2022-07-21T11:47:13;3.30;;;3.00;;
21293;SDS011;10806;52.250;21.066;2022-07-21T11:49:40;3.55;;;3.20;;
21293;SDS011;10806;52.250;21.066;2022-07-21T11:52:13;4.93;;;3.28;;
21293;SDS011;10806;52.250;21.066;2022-07-21T11:54:43;4.63;;;3.30;;
21293;SDS011;10806;52.250;21.066;2022-07-21T11:57:11;3.78;;;3.28;;
21293;SDS011;10806;52.250;21.066;2022-07-21T11:59:37;3.20;;;2.90;;
21293;SDS011;10806;52.250;21.066;2022-07-21T12:02:06;3.97;;;3.05;;
21293;SDS011;10806;52.250;21.066;2022-07-21T12:09:52;4.95;;;3.13;;
21293;SDS011;10806;52.250;21.066;2022-07-21T12:17:52;5.47;;;3.25;;
21293;SDS011;10806;52.250;21.066;2022-07-21T12:20:25;3.58;;;3.28;;
21293;SDS011;10806;52.250;21.066;2022-07-21T12:22:55;6.38;;;3.38;;
21293;SDS011;10806;52.250;21.066;2022-07-21T12:28:03;5.30;;;3.20;;
21293;SDS011;10806;52.250;21.066;2022-07-21T12:30:37;3.42;;;3.13;;
21293;SDS011;10806;52.250;21.066;2022-07-21T12:33:08;3.38;;;3.08;;
21293;SDS011;10806;52.250;21.066;2022-07-21T12:35:37;3.20;;;2.95;;
21293;SDS011;10806;52.250;21.066;2022-07-21T12:38:05;3.45;;;3.08;;
21293;SDS011;10806;52.250;21.066;2022-07-21T12:40:42;4.05;;;3.20;;
21293;SDS011;10806;52.250;21.066;2022-07-21T12:43:13;3.30;;;3.00;;
21293;SDS011;10806;52.250;21.066;2022-07-21T12:46:01;3.28;;;2.95;;
21293;SDS011;10806;52.250;21.066;2022-07-21T12:48:32;8.93;;;3.40;;
21293;SDS011;10806;52.250;21.066;2022-07-21T12:53:47;3.35;;;3.05;;
21293;SDS011;10806;52.250;21.066;2022-07-21T12:56:17;4.05;;;3.15;;
21293;SDS011;10806;52.250;21.066;2022-07-21T12:58:45;4.40;;;2.95;;
21293;SDS011;10806;52.250;21.066;2022-07-21T13:01:12;5.07;;;3.35;;
21293;SDS011;10806;52.250;21.066;2022-07-21T13:03:38;4.03;;;3.35;;
21293;SDS011;10806;52.250;21.066;2022-07-21T13:06:05;3.95;;;3.33;;
21293;SDS011;10806;52.250;21.066;2022-07-21T13:08:32;5.15;;;3.28;;
21293;SDS011;10806;52.250;21.066;2022-07-21T13:10:58;5.30;;;3.22;;
21293;SDS011;10806;52.250;21.066;2022-07-21T13:13:26;3.10;;;2.83;;
21293;SDS011;10806;52.250;21.066;2022-07-21T13:15:52;3.90;;;3.22;;
21293;SDS011;10806;52.250;21.066;2022-07-21T13:18:18;5.45;;;3.40;;
21293;SDS011;10806;52.250;21.066;2022-07-21T13:20:44;3.65;;;2.92;;
21293;SDS011;10806;52.250;21.066;2022-07-21T13:23:10;3.13;;;2.85;;
21293;SDS011;10806;52.250;21.066;2022-07-21T13:25:36;4.80;;;3.22;;
21293;SDS011;10806;52.250;21.066;2022-07-21T13:28:02;4.07;;;3.03;;
21293;SDS011;10806;52.250;21.066;2022-07-21T13:30:28;3.58;;;3.15;;
21293;SDS011;10806;52.250;21.066;2022-07-21T13:32:54;4.13;;;3.17;;
21293;SDS011;10806;52.250;21.066;2022-07-21T13:35:19;3.45;;;3.15;;
21293;SDS011;10806;52.250;21.066;2022-07-21T13:37:45;3.40;;;3.10;;
21293;SDS011;10806;52.250;21.066;2022-07-21T13:40:11;3.95;;;2.90;;
21293;SDS011;10806;52.250;21.066;2022-07-21T13:42:36;3.10;;;2.80;;
21293;SDS011;10806;52.250;21.066;2022-07-21T13:45:02;3.28;;;2.97;;
21293;SDS011;10806;52.250;21.066;2022-07-21T13:47:28;4.35;;;3.10;;
21293;SDS011;10806;52.250;21.066;2022-07-21T13:49:54;3.28;;;2.92;;
21293;SDS011;10806;52.250;21.066;2022-07-21T13:52:20;3.75;;;3.10;;
21293;SDS011;10806;52.250;21.066;2022-07-21T13:54:45;4.10;;;3.22;;
21293;SDS011;10806;52.250;21.066;2022-07-21T13:57:11;3.20;;;2.95;;
21293;SDS011;10806;52.250;21.066;2022-07-21T13:59:36;3.42;;;3.03;;
21293;SDS011;10806;52.250;21.066;2022-07-21T14:02:02;3.08;;;2.78;;
21293;SDS011;10806;52.250;21.066;2022-07-21T14:04:28;3.70;;;3.40;;
21293;SDS011;10806;52.250;21.066;2022-07-21T14:06:53;5.28;;;3.33;;
21293;SDS011;10806;52.250;21.066;2022-07-21T14:09:19;4.22;;;3.08;;
21293;SDS011;10806;52.250;21.066;2022-07-21T14:11:47;4.78;;;3.45;;
21293;SDS011;10806;52.250;21.066;2022-07-21T14:14:13;4.57;;;3.15;;
21293;SDS011;10806;52.250;21.066;2022-07-21T14:16:43;3.83;;;3.05;;
21293;SDS011;10806;52.250;21.066;2022-07-21T14:19:09;3.53;;;3.17;;
21293;SDS011;10806;52.250;21.066;2022-07-21T14:21:34;3.35;;;3.05;;
21293;SDS011;10806;52.250;21.066;2022-07-21T14:24:00;3.38;;;3.03;;
21293;SDS011;10806;52.250;21.066;2022-07-21T14:26:44;2.80;;;2.58;;
21293;SDS011;10806;52.250;21.066;2022-07-21T14:29:10;3.90;;;3.00;;
21293;SDS011;10806;52.250;21.066;2022-07-21T14:31:35;7.00;;;3.33;;
21293;SDS011;10806;52.250;21.066;2022-07-21T14:34:01;3.42;;;3.00;;
21293;SDS011;10806;52.250;21.066;2022-07-21T14:36:27;4.72;;;3.05;;
21293;SDS011;10806;52.250;21.066;2022-07-21T14:38:53;5.05;;;3.00;;
21293;SDS011;10806;52.250;21.066;2022-07-21T14:41:18;4.05;;;3.05;;
21293;SDS011;10806;52.250;21.066;2022-07-21T14:43:44;5.05;;;3.22;;
21293;SDS011;10806;52.250;21.066;2022-07-21T14:46:10;3.35;;;3.00;;
21293;SDS011;10806;52.250;21.066;2022-07-21T14:48:36;3.65;;;3.13;;
21293;SDS011;10806;52.250;21.066;2022-07-21T14:51:01;4.18;;;3.10;;
21293;SDS011;10806;52.250;21.066;2022-07-21T14:53:27;5.38;;;3.40;;
21293;SDS011;10806;52.250;21.066;2022-07-21T14:55:53;5.65;;;3.17;;
21293;SDS011;10806;52.250;21.066;2022-07-21T14:58:18;5.47;;;3.20;;
21293;SDS011;10806;52.250;21.066;2022-07-21T15:00:44;3.78;;;3.38;;
21293;SDS011;10806;52.250;21.066;2022-07-21T15:03:09;4.32;;;3.55;;
21293;SDS011;10806;52.250;21.066;2022-07-21T15:05:35;3.20;;;2.90;;
21293;SDS011;10806;52.250;21.066;2022-07-21T15:08:00;4.00;;;3.47;;
21293;SDS011;10806;52.250;21.066;2022-07-21T15:10:26;6.40;;;3.53;;
21293;SDS011;10806;52.250;21.066;2022-07-21T15:12:52;4.18;;;3.25;;